Time;durP1;ratioP1;P1;durP2;ratioP2;P2;SDS_P1;SDS_P2;PMS_P1;PMS_P2;Temp;Humidity;BMP_temperature;BMP_pressure;BME280_temperature;BME280_humidity;BME280_pressure;Samples;Min_cycle;Max_cycle;Signal;HPM_P1;HPM_P2
2022/11/28 00:01:16;;;;;;;27.38;6.40;;;11.90;99.90;;;;;;5053200;28;20021;-64
2022/11/28 00:03:42;;;;;;;27.75;6.35;;;11.90;99.90;;;;;;5053047;28;20036;-65
2022/11/28 00:06:08;;;;;;;26.58;5.82;;;11.80;99.90;;;;;;5052843;28;20024;-65
2022/11/28 00:08:34;;;;;;;29.65;5.93;;;11.80;99.90;;;;;;5052826;28;20052;-62
2022/11/28 00:11:05;;;;;;;27.65;4.90;;;11.80;99.90;;;;;;5053203;28;20021;-62
2022/11/28 00:13:31;;;;;;;21.00;4.95;;;11.80;99.90;;;;;;5052681;28;20497;-62
2022/11/28 00:15:58;;;;;;;26.50;4.68;;;11.70;99.90;;;;;;5052734;28;20031;-63
2022/11/28 00:18:24;;;;;;;24.60;4.85;;;11.70;99.90;;;;;;5052420;28;20482;-63
2022/11/28 00:20:50;;;;;;;28.15;5.65;;;11.70;99.90;;;;;;5051025;28;20086;-63
2022/11/28 00:23:16;;;;;;;24.42;4.95;;;11.80;99.90;;;;;;5052562;28;20549;-63
2022/11/28 00:25:42;;;;;;;30.80;5.32;;;11.80;99.90;;;;;;5052567;28;20029;-63
2022/11/28 00:28:07;;;;;;;28.70;5.03;;;11.70;99.90;;;;;;5052670;28;20032;-62
2022/11/28 00:30:37;;;;;;;29.05;4.75;;;11.60;99.90;;;;;;5052446;28;20029;-62
2022/11/28 00:33:03;;;;;;;28.55;5.32;;;11.50;99.90;;;;;;5052435;28;20036;-63
2022/11/28 00:35:29;;;;;;;31.05;5.47;;;11.40;99.90;;;;;;5052285;28;20397;-62
2022/11/28 00:37:54;;;;;;;29.23;5.78;;;11.50;99.90;;;;;;5052480;28;20021;-64
2022/11/28 00:40:21;;;;;;;24.48;5.68;;;11.40;99.90;;;;;;5052030;28;20048;-65
2022/11/28 00:42:47;;;;;;;35.28;6.95;;;11.50;99.90;;;;;;5052235;28;20027;-64
2022/11/28 00:45:12;;;;;;;26.90;5.25;;;11.50;99.90;;;;;;5052672;28;20390;-65
2022/11/28 00:47:38;;;;;;;25.40;5.03;;;11.40;99.90;;;;;;5052187;28;20021;-64
2022/11/28 00:50:04;;;;;;;31.30;5.57;;;11.40;99.90;;;;;;5051640;28;20072;-65
2022/11/28 00:52:33;;;;;;;25.30;5.43;;;11.40;99.90;;;;;;5052486;28;20394;-64
2022/11/28 00:54:59;;;;;;;26.55;6.10;;;11.40;99.90;;;;;;5051899;28;20025;-65
2022/11/28 00:57:24;;;;;;;30.08;5.68;;;11.40;99.90;;;;;;5051830;28;20490;-65
2022/11/28 00:59:50;;;;;;;26.55;5.60;;;11.40;99.90;;;;;;5052080;28;20021;-65
2022/11/28 01:02:16;;;;;;;23.13;5.28;;;11.30;99.90;;;;;;5052208;28;20060;-65
2022/11/28 01:04:42;;;;;;;30.38;5.88;;;11.40;99.90;;;;;;5051506;28;20576;-65
2022/11/28 01:07:07;;;;;;;27.05;4.68;;;11.40;99.90;;;;;;5051918;28;20112;-65
2022/11/28 01:09:33;;;;;;;30.70;5.20;;;11.30;99.90;;;;;;5051906;28;20479;-65
2022/11/28 01:11:59;;;;;;;34.00;6.43;;;11.30;99.90;;;;;;5050675;28;20029;-65
2022/11/28 01:14:25;;;;;;;31.17;5.45;;;11.20;99.90;;;;;;5051629;28;20025;-65
2022/11/28 01:16:51;;;;;;;31.63;5.90;;;11.20;99.90;;;;;;5050717;28;20359;-65
2022/11/28 01:19:17;;;;;;;33.80;5.38;;;11.20;99.90;;;;;;5051548;28;20029;-64
2022/11/28 01:21:43;;;;;;;31.40;5.20;;;11.20;99.90;;;;;;5051586;28;20028;-65
2022/11/28 01:24:09;;;;;;;25.35;5.20;;;11.20;99.90;;;;;;5051678;28;20410;-65
2022/11/28 01:26:39;;;;;;;24.10;4.90;;;11.00;99.90;;;;;;5051793;28;20423;-65
2022/11/28 01:29:05;;;;;;;20.58;4.35;;;11.00;99.90;;;;;;5051622;28;20120;-65
2022/11/28 01:31:31;;;;;;;32.47;5.45;;;11.10;99.90;;;;;;5054895;28;20028;-65
2022/11/28 01:33:57;;;;;;;28.10;5.13;;;11.00;99.90;;;;;;5055414;28;20047;-65
2022/11/28 01:36:23;;;;;;;36.05;5.57;;;11.00;99.90;;;;;;5055715;28;20032;-65
2022/11/28 01:38:50;;;;;;;24.30;5.15;;;11.00;99.90;;;;;;5055719;28;20548;-65
2022/11/28 01:41:20;;;;;;;27.02;6.97;;;10.90;99.90;;;;;;5055644;28;20406;-64
2022/11/28 01:44:06;;;;;;;25.00;5.05;;;11.00;99.90;;;;;;5055667;28;20048;-65
2022/11/28 01:46:33;;;;;;;25.77;5.57;;;10.90;99.90;;;;;;5055605;28;20029;-65
2022/11/28 01:49:06;;;;;;;39.67;7.10;;;10.90;99.90;;;;;;5055156;28;20043;-65
2022/11/28 01:51:32;;;;;;;34.67;6.75;;;10.90;99.90;;;;;;5055863;28;20087;-65
2022/11/28 01:53:59;;;;;;;33.80;6.38;;;10.90;99.90;;;;;;5054158;28;20371;-65
2022/11/28 01:56:33;;;;;;;24.00;5.07;;;10.80;99.90;;;;;;5055468;28;20032;-65
2022/11/28 01:59:03;;;;;;;24.55;6.15;;;10.70;99.90;;;;;;5055350;28;20515;-65
2022/11/28 02:01:28;;;;;;;26.48;6.43;;;10.90;99.90;;;;;;5055458;28;20025;-65
2022/11/28 02:03:56;;;;;;;29.25;6.50;;;10.90;99.90;;;;;;5054883;28;20543;-65
2022/11/28 02:06:23;;;;;;;32.33;6.63;;;10.80;99.90;;;;;;5055233;28;20078;-65
2022/11/28 02:08:53;;;;;;;38.30;7.57;;;10.80;99.90;;;;;;5055027;28;20086;-65
2022/11/28 02:11:42;;;;;;;33.53;8.25;;;10.80;99.90;;;;;;5055277;28;20063;-65
2022/11/28 02:14:26;;;;;;;44.25;8.90;;;10.90;99.90;;;;;;5049825;28;20065;-64
2022/11/28 02:17:24;;;;;;;37.40;8.45;;;10.80;99.90;;;;;;5054991;28;20071;-65
2022/11/28 02:20:11;;;;;;;41.35;7.97;;;10.70;99.90;;;;;;5054915;28;20037;-65
2022/11/28 02:23:16;;;;;;;28.55;6.78;;;10.60;99.90;;;;;;5054815;28;20037;-64
2022/11/28 02:26:04;;;;;;;38.67;7.65;;;10.60;99.90;;;;;;5012927;28;20477;-65
2022/11/28 02:28:35;;;;;;;28.70;5.85;;;10.50;99.90;;;;;;5012775;28;20049;-65
2022/11/28 02:31:01;;;;;;;35.03;6.35;;;10.50;99.90;;;;;;5012790;28;20049;-64
2022/11/28 02:33:52;;;;;;;35.90;5.97;;;10.50;99.90;;;;;;5012364;28;20396;-65
2022/11/28 02:36:48;;;;;;;22.58;5.60;;;10.40;99.90;;;;;;5012919;28;20025;-64
2022/11/28 02:39:42;;;;;;;33.45;6.97;;;10.50;99.90;;;;;;5012790;28;20159;-64
2022/11/28 02:42:27;;;;;;;35.95;7.22;;;10.70;99.90;;;;;;5012409;28;20042;-65
2022/11/28 02:45:26;;;;;;;40.72;10.77;;;10.70;99.90;;;;;;5012362;28;20538;-65
2022/11/28 02:48:06;;;;;;;46.85;11.07;;;10.80;99.90;;;;;;5012135;28;20065;-65
2022/11/28 02:50:41;;;;;;;31.63;6.70;;;10.80;99.90;;;;;;5012874;28;20038;-65
2022/11/28 02:53:13;;;;;;;35.53;6.68;;;10.90;99.90;;;;;;5012670;28;20124;-65
2022/11/28 02:55:42;;;;;;;32.80;5.97;;;10.90;99.90;;;;;;5012488;28;20431;-65
2022/11/28 02:58:09;;;;;;;30.10;5.65;;;10.90;99.90;;;;;;5012375;28;20025;-64
2022/11/28 03:00:38;;;;;;;28.92;5.32;;;10.90;99.90;;;;;;5034779;28;20063;-65
2022/11/28 03:03:41;;;;;;;31.58;5.35;;;10.80;99.90;;;;;;5054204;28;20040;-65
2022/11/28 03:06:22;;;;;;;30.33;5.28;;;10.70;99.90;;;;;;5053999;28;20096;-65
2022/11/28 03:09:01;;;;;;;34.95;5.30;;;10.60;99.90;;;;;;5054471;28;20071;-64
2022/11/28 03:11:54;;;;;;;30.88;5.47;;;10.50;99.90;;;;;;5053847;28;20036;-65
2022/11/28 03:14:47;;;;;;;27.40;5.33;;;10.40;99.90;;;;;;5054109;28;20029;-64
2022/11/28 03:17:35;;;;;;;27.70;5.38;;;10.30;99.90;;;;;;5048863;28;20283;-65
2022/11/28 03:20:15;;;;;;;36.40;5.55;;;10.20;99.90;;;;;;5054088;28;20029;-65
2022/11/28 03:23:05;;;;;;;27.67;5.25;;;10.10;99.90;;;;;;5053844;28;20477;-64
2022/11/28 03:25:39;;;;;;;27.50;5.00;;;10.10;99.90;;;;;;5053769;28;20029;-65
2022/11/28 03:28:29;;;;;;;34.28;5.30;;;10.10;99.90;;;;;;5053664;28;20021;-65
2022/11/28 03:31:09;;;;;;;27.70;5.32;;;10.00;99.90;;;;;;5053439;28;20537;-65
2022/11/28 03:33:38;;;;;;;26.42;4.82;;;10.10;99.90;;;;;;5053667;28;20113;-65
2022/11/28 03:36:10;;;;;;;28.92;5.63;;;10.20;99.90;;;;;;5053364;28;20108;-65
2022/11/28 03:38:41;;;;;;;19.42;4.43;;;10.40;99.90;;;;;;5053611;28;20021;-65
2022/11/28 03:41:14;;;;;;;21.90;4.50;;;10.40;99.90;;;;;;5053191;28;20114;-65
2022/11/28 03:43:46;;;;;;;26.10;9.40;;;10.50;99.90;;;;;;5053093;28;20098;-65
2022/11/28 03:46:15;;;;;;;24.95;9.98;;;10.50;99.90;;;;;;5053731;28;20017;-65
2022/11/28 03:48:46;;;;;;;17.25;4.18;;;10.50;99.90;;;;;;5053207;28;20031;-65
2022/11/28 03:51:17;;;;;;;30.15;11.82;;;10.50;99.90;;;;;;5053265;28;20064;-65
2022/11/28 03:53:57;;;;;;;36.42;20.45;;;10.40;99.90;;;;;;5052488;28;20033;-65
2022/11/28 03:56:51;;;;;;;20.65;9.07;;;10.30;99.90;;;;;;5053140;28;20136;-65
2022/11/28 03:59:24;;;;;;;18.08;7.72;;;10.20;99.90;;;;;;5052939;28;20025;-65
2022/11/28 04:01:55;;;;;;;52.50;31.10;;;10.10;99.90;;;;;;5053022;28;20037;-64
2022/11/28 04:04:52;;;;;;;31.20;16.40;;;10.00;99.90;;;;;;5053206;28;20116;-64
2022/11/28 04:07:37;;;;;;;16.92;4.88;;;9.80;99.90;;;;;;5030806;28;20033;-65
2022/11/28 04:10:17;;;;;;;11.35;3.53;;;9.70;99.90;;;;;;5030530;28;20047;-64
2022/11/28 04:13:06;;;;;;;12.25;2.85;;;9.80;99.90;;;;;;5030226;28;20037;-65
2022/11/28 04:15:52;;;;;;;13.80;2.78;;;9.70;99.90;;;;;;5030528;28;20021;-65
2022/11/28 04:18:24;;;;;;;15.10;3.20;;;9.60;99.90;;;;;;5030642;28;20061;-65
2022/11/28 04:20:59;;;;;;;18.40;3.28;;;9.50;99.90;;;;;;5030604;28;20477;-65
2022/11/28 04:23:26;;;;;;;14.93;2.75;;;9.50;99.90;;;;;;5030504;28;20033;-65
2022/11/28 04:26:06;;;;;;;11.73;2.35;;;9.40;99.90;;;;;;5030624;28;20029;-65
2022/11/28 04:28:33;;;;;;;24.58;3.58;;;9.40;99.90;;;;;;5013925;28;20499;-65
2022/11/28 04:31:02;;;;;;;12.70;2.95;;;9.20;99.90;;;;;;5030292;28;20042;-65
2022/11/28 04:33:31;;;;;;;19.77;3.60;;;9.10;99.90;;;;;;5030166;28;20057;-65
2022/11/28 04:35:58;;;;;;;27.05;4.18;;;9.20;99.90;;;;;;5030598;28;20025;-64
2022/11/28 04:38:27;;;;;;;20.38;3.90;;;9.10;99.90;;;;;;5030342;28;20045;-65
2022/11/28 04:40:59;;;;;;;50.63;30.95;;;9.20;99.90;;;;;;5029826;28;20056;-65
2022/11/28 04:44:09;;;;;;;19.88;5.22;;;9.20;99.90;;;;;;5025573;28;20049;-64
2022/11/28 04:46:42;;;;;;;13.38;3.70;;;9.60;99.90;;;;;;5030358;28;20029;-65
2022/11/28 04:49:08;;;;;;;15.73;3.40;;;9.70;99.90;;;;;;5029486;28;20053;-65
2022/11/28 04:51:45;;;;;;;14.45;3.15;;;9.70;99.90;;;;;;5030498;28;20061;-64
2022/11/28 04:54:26;;;;;;;15.15;3.50;;;9.70;99.90;;;;;;5029983;28;20029;-65
2022/11/28 04:56:58;;;;;;;15.10;2.92;;;9.70;99.90;;;;;;5029488;28;20030;-65
2022/11/28 04:59:26;;;;;;;13.68;3.17;;;9.60;99.90;;;;;;5030270;28;20037;-65
2022/11/28 05:01:54;;;;;;;15.18;3.22;;;9.50;99.90;;;;;;5015529;28;20105;-65
2022/11/28 05:04:20;;;;;;;12.55;2.92;;;9.50;99.90;;;;;;5010035;28;20065;-64
2022/11/28 05:06:46;;;;;;;13.48;2.80;;;9.40;99.90;;;;;;5009997;28;20026;-65
2022/11/28 05:09:13;;;;;;;9.57;2.65;;;9.50;99.90;;;;;;5009928;28;20426;-64
2022/11/28 05:11:39;;;;;;;12.68;3.05;;;9.50;99.90;;;;;;5010070;28;20058;-64
2022/11/28 05:14:05;;;;;;;15.15;3.10;;;9.40;99.90;;;;;;5010052;28;20026;-64
2022/11/28 05:16:31;;;;;;;15.30;2.83;;;9.30;99.90;;;;;;5014413;28;20073;-65
2022/11/28 05:18:56;;;;;;;14.98;2.70;;;9.20;99.90;;;;;;5031953;28;20065;-64
2022/11/28 05:21:22;;;;;;;15.25;3.65;;;9.10;99.90;;;;;;5030432;28;20049;-64
2022/11/28 05:23:48;;;;;;;34.88;15.70;;;9.10;99.90;;;;;;5031907;28;20022;-64
2022/11/28 05:26:19;;;;;;;31.70;17.75;;;9.00;99.90;;;;;;5030438;28;20041;-65
2022/11/28 05:28:48;;;;;;;24.50;12.18;;;9.00;99.90;;;;;;5031865;28;20033;-65
2022/11/28 05:31:16;;;;;;;27.13;8.27;;;8.90;99.90;;;;;;5031690;28;20487;-64
2022/11/28 05:33:41;;;;;;;22.80;5.10;;;8.70;99.90;;;;;;5031758;28;20119;-64
2022/11/28 05:36:10;;;;;;;17.80;4.30;;;8.60;99.90;;;;;;5031530;28;20057;-65
2022/11/28 05:38:36;;;;;;;23.73;4.00;;;8.50;99.90;;;;;;5032138;28;20029;-65
2022/11/28 05:41:02;;;;;;;24.48;3.88;;;8.70;99.90;;;;;;5046085;28;20041;-64
2022/11/28 05:43:28;;;;;;;15.73;3.20;;;8.70;99.90;;;;;;5051503;28;20430;-64
2022/11/28 05:45:55;;;;;;;15.93;4.30;;;8.80;99.90;;;;;;5051520;28;20032;-64
2022/11/28 05:48:21;;;;;;;15.60;5.20;;;8.90;99.90;;;;;;5051502;28;20052;-65
2022/11/28 05:50:49;;;;;;;20.35;4.03;;;9.10;99.90;;;;;;5051427;28;20060;-65
2022/11/28 05:53:16;;;;;;;16.50;3.35;;;9.30;99.90;;;;;;5051838;28;20024;-65
2022/11/28 05:55:42;;;;;;;25.58;9.00;;;9.30;99.90;;;;;;5051211;28;20025;-65
2022/11/28 05:58:08;;;;;;;11.70;4.30;;;9.40;99.90;;;;;;5051393;28;20413;-65
2022/11/28 06:00:34;;;;;;;15.32;3.88;;;9.40;99.90;;;;;;5051497;28;20029;-64
2022/11/28 06:03:00;;;;;;;12.40;4.03;;;9.30;99.90;;;;;;5051416;28;20025;-64
2022/11/28 06:05:26;;;;;;;13.95;3.58;;;9.30;99.90;;;;;;5051306;28;20079;-64
2022/11/28 06:07:51;;;;;;;14.93;3.28;;;9.30;99.90;;;;;;5051460;28;20025;-65
2022/11/28 06:10:18;;;;;;;14.40;3.28;;;9.30;99.90;;;;;;5050870;28;20037;-64
2022/11/28 06:12:43;;;;;;;13.90;3.00;;;9.20;99.90;;;;;;5051309;28;20031;-65
2022/11/28 06:15:09;;;;;;;14.93;3.17;;;9.30;99.90;;;;;;5051298;28;20108;-65
2022/11/28 06:17:35;;;;;;;12.68;3.65;;;9.30;99.90;;;;;;5054702;28;20441;-65
2022/11/28 06:20:01;;;;;;;21.30;4.25;;;9.20;99.90;;;;;;5054962;28;20059;-64
2022/11/28 06:22:27;;;;;;;16.35;4.25;;;9.00;99.90;;;;;;5055071;28;20056;-65
2022/11/28 06:24:52;;;;;;;21.40;4.78;;;8.90;99.90;;;;;;5054501;28;20056;-65
2022/11/28 06:27:18;;;;;;;18.23;4.78;;;8.90;99.90;;;;;;5055191;28;20018;-64
2022/11/28 06:29:44;;;;;;;18.98;4.88;;;8.70;99.90;;;;;;5054537;28;20036;-65
2022/11/28 06:32:09;;;;;;;19.20;4.90;;;8.60;99.90;;;;;;5054724;28;20108;-64
2022/11/28 06:34:35;;;;;;;19.63;5.20;;;8.40;99.90;;;;;;5054776;28;20029;-65
2022/11/28 06:37:01;;;;;;;32.92;7.15;;;8.40;99.90;;;;;;5054451;28;20484;-64
2022/11/28 06:39:26;;;;;;;25.42;7.07;;;8.30;99.90;;;;;;5054419;28;20029;-64
2022/11/28 06:41:52;;;;;;;19.02;7.03;;;8.30;99.90;;;;;;5054564;28;20040;-65
2022/11/28 06:44:18;;;;;;;31.92;13.52;;;8.30;99.90;;;;;;5054432;28;20028;-64
2022/11/28 06:46:44;;;;;;;23.95;9.43;;;8.30;99.90;;;;;;5054412;28;20060;-65
2022/11/28 06:49:11;;;;;;;30.13;10.82;;;8.30;99.90;;;;;;5054611;28;20047;-64
2022/11/28 06:51:38;;;;;;;23.35;9.57;;;8.30;99.90;;;;;;5054937;28;20104;-65
2022/11/28 06:54:04;;;;;;;23.95;10.50;;;8.20;99.90;;;;;;5053882;28;20028;-65
2022/11/28 06:56:30;;;;;;;21.90;10.55;;;8.00;99.90;;;;;;5054361;28;20032;-65
2022/11/28 06:58:57;;;;;;;24.83;9.73;;;8.10;99.90;;;;;;5054051;28;20079;-65
2022/11/28 07:01:25;;;;;;;27.00;8.60;;;8.00;99.90;;;;;;5054232;28;20033;-65
2022/11/28 07:03:53;;;;;;;21.85;7.95;;;8.00;99.90;;;;;;5054255;28;20021;-65
2022/11/28 07:06:20;;;;;;;24.70;8.20;;;8.00;99.90;;;;;;5054595;28;20488;-65
2022/11/28 07:08:47;;;;;;;27.55;10.02;;;8.10;99.90;;;;;;5053529;28;20444;-65
2022/11/28 07:11:24;;;;;;;23.85;13.57;;;8.00;99.90;;;;;;5054016;28;20033;-65
2022/11/28 07:13:51;;;;;;;15.48;6.10;;;8.20;99.90;;;;;;5053984;28;20386;-65
2022/11/28 07:16:22;;;;;;;18.20;6.50;;;8.20;99.90;;;;;;5054296;28;20028;-65
2022/11/28 07:18:48;;;;;;;26.30;7.18;;;8.10;99.90;;;;;;5052319;28;20398;-65
2022/11/28 07:21:15;;;;;;;25.00;12.18;;;7.90;99.90;;;;;;5053249;28;20105;-64
2022/11/28 07:23:42;;;;;;;16.02;7.00;;;7.80;99.90;;;;;;5053939;28;20037;-65
2022/11/28 07:26:10;;;;;;;19.48;7.95;;;7.60;99.90;;;;;;5054066;28;20014;-64
2022/11/28 07:28:36;;;;;;;23.35;9.55;;;7.70;99.90;;;;;;5052820;28;20116;-65
2022/11/28 07:31:05;;;;;;;90.82;14.48;;;7.40;99.90;;;;;;5053747;28;20037;-65
2022/11/28 07:33:32;;;;;;;99.03;16.00;;;7.30;99.90;;;;;;5053468;28;20025;-65
2022/11/28 07:36:11;;;;;;;19.23;9.52;;;7.10;99.90;;;;;;5053105;28;20028;-64
2022/11/28 07:38:36;;;;;;;20.60;9.18;;;7.10;99.90;;;;;;5053574;28;20025;-64
2022/11/28 07:41:11;;;;;;;16.40;7.20;;;7.20;99.90;;;;;;5053432;28;20082;-65
2022/11/28 07:43:38;;;;;;;24.23;10.18;;;7.20;99.90;;;;;;5053523;28;20171;-64
2022/11/28 07:46:07;;;;;;;18.23;8.73;;;7.40;99.90;;;;;;5053995;28;20091;-65
2022/11/28 07:48:33;;;;;;;23.08;11.63;;;7.10;99.90;;;;;;5053930;28;20028;-65
2022/11/28 07:50:59;;;;;;;24.48;12.52;;;7.10;99.90;;;;;;5053555;28;20417;-64
2022/11/28 07:53:26;;;;;;;33.15;15.90;;;7.00;99.90;;;;;;5053177;28;20521;-65
2022/11/28 07:55:51;;;;;;;18.65;10.63;;;6.90;99.90;;;;;;5053201;28;20025;-64
2022/11/28 07:58:17;;;;;;;30.67;14.95;;;7.00;99.90;;;;;;5053141;28;20100;-65
2022/11/28 08:00:43;;;;;;;35.33;15.98;;;7.20;99.90;;;;;;5053199;28;20470;-65
2022/11/28 08:03:08;;;;;;;42.08;15.63;;;7.40;99.90;;;;;;5053583;28;20099;-65
2022/11/28 08:05:34;;;;;;;28.00;13.20;;;7.40;99.90;;;;;;5053439;28;20033;-64
2022/11/28 08:08:01;;;;;;;18.10;9.98;;;7.50;99.90;;;;;;5053045;28;20474;-64
2022/11/28 08:10:27;;;;;;;20.75;11.45;;;7.90;99.90;;;;;;5053041;28;20037;-65
2022/11/28 08:12:52;;;;;;;25.50;12.95;;;8.40;99.90;;;;;;5052719;28;20035;-65
2022/11/28 08:15:19;;;;;;;25.73;11.48;;;8.90;99.90;;;;;;5052966;28;20275;-65
2022/11/28 08:17:44;;;;;;;18.73;8.95;;;8.70;99.90;;;;;;5053016;28;20025;-65
2022/11/28 08:20:10;;;;;;;17.23;7.70;;;8.70;99.90;;;;;;5052584;28;20539;-65
2022/11/28 08:22:36;;;;;;;17.85;6.38;;;8.70;99.90;;;;;;5052698;28;20096;-65
2022/11/28 08:25:02;;;;;;;20.73;10.20;;;8.90;99.90;;;;;;5051301;28;20520;-65
2022/11/28 08:27:27;;;;;;;14.20;5.10;;;8.90;99.90;;;;;;5052477;28;20028;-65
2022/11/28 08:29:53;;;;;;;22.15;6.88;;;9.00;99.90;;;;;;5052811;28;20486;-65
2022/11/28 08:32:19;;;;;;;20.40;5.25;;;8.90;99.90;;;;;;5052520;28;20025;-65
2022/11/28 08:34:44;;;;;;;21.08;6.10;;;9.00;99.90;;;;;;5052132;28;20035;-65
2022/11/28 08:37:10;;;;;;;16.80;5.40;;;9.10;99.90;;;;;;5052805;28;20028;-65
2022/11/28 08:39:36;;;;;;;17.05;5.72;;;11.10;99.90;;;;;;5051934;28;20036;-65
2022/11/28 08:42:01;;;;;;;20.60;6.28;;;11.10;99.90;;;;;;5052723;28;20071;-65
2022/11/28 08:44:27;;;;;;;20.92;6.60;;;10.50;99.90;;;;;;5052407;28;20111;-65
2022/11/28 08:46:53;;;;;;;27.02;12.80;;;11.50;99.90;;;;;;5052568;28;20021;-65
2022/11/28 08:49:19;;;;;;;17.00;9.27;;;12.20;99.90;;;;;;5052030;28;20449;-64
2022/11/28 08:51:45;;;;;;;17.48;8.45;;;11.50;99.90;;;;;;5052254;28;20025;-64
2022/11/28 08:54:11;;;;;;;20.17;7.88;;;11.00;99.90;;;;;;5052794;28;20087;-64
2022/11/28 08:56:37;;;;;;;18.20;8.18;;;10.80;99.90;;;;;;5052245;28;20079;-64
2022/11/28 08:59:02;;;;;;;16.27;5.63;;;10.20;99.90;;;;;;5052355;28;20102;-64
2022/11/28 09:01:28;;;;;;;15.73;4.95;;;10.10;99.90;;;;;;5051985;28;20051;-64
2022/11/28 09:03:55;;;;;;;13.95;4.30;;;10.30;99.90;;;;;;5051911;28;20021;-64
2022/11/28 09:06:22;;;;;;;18.58;4.30;;;10.30;99.90;;;;;;5052622;28;20021;-64
2022/11/28 09:08:49;;;;;;;16.60;3.85;;;10.20;99.90;;;;;;5052722;28;20136;-64
2022/11/28 09:11:17;;;;;;;13.82;3.42;;;10.10;99.90;;;;;;5053318;28;20021;-64
2022/11/28 09:13:44;;;;;;;14.70;3.90;;;10.30;99.90;;;;;;5053184;28;20489;-65
2022/11/28 09:16:10;;;;;;;15.38;3.80;;;10.40;99.90;;;;;;5052380;28;20396;-64
2022/11/28 09:18:35;;;;;;;13.35;3.70;;;10.40;99.90;;;;;;5051522;28;20029;-64
2022/11/28 09:21:06;;;;;;;19.13;4.93;;;10.80;99.90;;;;;;5052515;28;20028;-64
2022/11/28 09:23:32;;;;;;;16.70;4.45;;;11.00;99.90;;;;;;5052596;28;20037;-64
2022/11/28 09:25:57;;;;;;;13.88;4.75;;;13.60;99.90;;;;;;5052294;28;20389;-65
2022/11/28 09:28:27;;;;;;;14.23;4.50;;;16.00;99.90;;;;;;5051963;28;20029;-65
2022/11/28 09:31:00;;;;;;;13.93;4.40;;;17.60;99.90;;;;;;5051613;28;20043;-65
2022/11/28 09:33:26;;;;;;;18.97;4.47;;;18.80;99.90;;;;;;5051413;28;20021;-64
2022/11/28 09:35:54;;;;;;;13.90;3.92;;;19.70;99.90;;;;;;5050813;28;20262;-65
2022/11/28 09:38:20;;;;;;;11.80;3.78;;;20.40;99.90;;;;;;5051580;28;20041;-64
2022/11/28 09:40:47;;;;;;;14.02;3.97;;;21.00;99.90;;;;;;5051401;28;20053;-65
2022/11/28 09:43:27;;;;;;;12.85;3.05;;;20.00;99.90;;;;;;5051588;28;20032;-64
2022/11/28 09:45:55;;;;;;;17.10;3.90;;;17.50;99.90;;;;;;5052093;28;20025;-64
2022/11/28 09:48:32;;;;;;;12.80;3.35;;;16.00;99.90;;;;;;5053147;28;20399;-64
2022/11/28 09:51:31;;;;;;;15.52;3.45;;;17.30;99.90;;;;;;5053122;28;20041;-64
2022/11/28 09:54:15;;;;;;;14.65;3.45;;;16.40;99.90;;;;;;5034614;28;20123;-64
2022/11/28 09:56:43;;;;;;;13.30;3.28;;;19.40;99.90;;;;;;5034412;28;20041;-62
2022/11/28 09:59:19;;;;;;;13.45;3.55;;;;;;;;;;5033288;28;20029;-63
2022/11/28 10:02:05;;;;;;;13.10;2.88;;;;;;;;;;5033516;28;20037;-62
2022/11/28 10:04:44;;;;;;;15.32;2.97;;;;;;;;;;5034438;28;20037;-63
2022/11/28 10:07:30;;;;;;;9.18;2.88;;;;;;;;;;5033116;28;20025;-62
2022/11/28 10:10:36;;;;;;;9.80;2.65;;;13.20;99.90;;;;;;5033234;28;20049;-63
2022/11/28 10:13:17;;;;;;;7.53;2.30;;;13.00;99.90;;;;;;4974129;28;20027;-62
2022/11/28 10:15:48;;;;;;;8.98;2.10;;;12.90;99.90;;;;;;4973914;28;20456;-62
2022/11/28 10:18:25;;;;;;;7.13;1.70;;;12.50;99.90;;;;;;4974330;28;20081;-62
2022/11/28 10:21:00;;;;;;;7.60;2.08;;;12.30;99.90;;;;;;4974031;28;20078;-62
2022/11/28 10:23:41;;;;;;;10.18;2.00;;;12.10;99.90;;;;;;4974766;28;20023;-62
2022/11/28 10:26:35;;;;;;;9.95;2.30;;;11.80;99.90;;;;;;4975304;28;20027;-62
2022/11/28 10:29:20;;;;;;;9.90;2.08;;;11.90;99.90;;;;;;4974041;28;20069;-62
2022/11/28 10:31:47;;;;;;;8.38;2.28;;;11.80;99.90;;;;;;4957081;28;20035;-62
2022/11/28 10:34:25;;;;;;;9.43;2.40;;;11.90;99.90;;;;;;4955862;29;20126;-62
2022/11/28 10:37:05;;;;;;;10.25;2.72;;;12.00;99.90;;;;;;4970322;28;20030;-64
2022/11/28 10:39:34;;;;;;;8.80;2.80;;;12.90;99.90;;;;;;4973762;28;20035;-62
2022/11/28 10:42:10;;;;;;;9.60;2.30;;;16.10;99.90;;;;;;4974169;28;20094;-64
2022/11/28 10:45:15;;;;;;;10.55;2.97;;;18.20;99.90;;;;;;4974239;28;20062;-64
2022/11/28 10:47:58;;;;;;;11.55;3.53;;;19.80;99.90;;;;;;4965734;28;20037;-64
2022/11/28 10:50:32;;;;;;;9.77;3.10;;;20.00;99.90;;;;;;4973844;28;20051;-64
2022/11/28 10:53:13;;;;;;;8.73;2.85;;;20.40;99.90;;;;;;4973693;28;20035;-64
2022/11/28 10:56:02;;;;;;;9.57;2.95;;;21.40;99.90;;;;;;4973570;28;20034;-64
2022/11/28 10:58:36;;;;;;;12.82;3.10;;;21.40;99.90;;;;;;4973813;28;20593;-64
2022/11/28 11:01:02;;;;;;;7.68;3.40;;;21.50;99.90;;;;;;4980224;28;20355;-64
2022/11/28 11:03:31;;;;;;;10.45;2.92;;;22.20;99.90;;;;;;4992671;28;20116;-63
2022/11/28 11:05:58;;;;;;;12.85;3.47;;;22.10;99.90;;;;;;4992577;28;20039;-64
2022/11/28 11:08:27;;;;;;;9.23;2.90;;;21.90;99.90;;;;;;4992872;28;20034;-64
2022/11/28 11:11:07;;;;;;;10.48;2.80;;;20.50;99.90;;;;;;4992446;28;20434;-64
2022/11/28 11:13:54;;;;;;;10.73;2.83;;;17.80;99.90;;;;;;4992291;28;20093;-64
2022/11/28 11:16:19;;;;;;;7.95;2.45;;;16.80;99.90;;;;;;4992564;28;20030;-64
2022/11/28 11:18:45;;;;;;;9.30;2.45;;;17.40;99.90;;;;;;4992152;28;20039;-64
2022/11/28 11:21:23;;;;;;;12.50;2.53;;;16.90;99.90;;;;;;4992562;28;20065;-64
2022/11/28 11:24:05;;;;;;;13.45;2.85;;;16.10;99.90;;;;;;5006365;28;20552;-64
2022/11/28 11:26:38;;;;;;;9.32;2.50;;;15.20;99.90;;;;;;5054066;28;20039;-62
2022/11/28 11:29:04;;;;;;;10.60;2.75;;;14.80;99.90;;;;;;5053566;28;20044;-62
2022/11/28 11:31:32;;;;;;;13.18;3.30;;;14.90;99.90;;;;;;5054498;28;20025;-62
2022/11/28 11:34:15;;;;;;;13.10;3.53;;;15.10;99.90;;;;;;5054159;28;20029;-62
2022/11/28 11:36:41;;;;;;;13.65;3.30;;;15.50;99.90;;;;;;5054357;28;20032;-62
2022/11/28 11:39:17;;;;;;;13.85;3.20;;;16.90;99.90;;;;;;5054695;28;20021;-61
2022/11/28 11:41:49;;;;;;;13.77;2.92;;;17.70;99.90;;;;;;5054108;28;20041;-62
2022/11/28 11:44:15;;;;;;;14.93;3.17;;;17.30;99.90;;;;;;5053412;28;20059;-61
2022/11/28 11:46:54;;;;;;;15.88;3.03;;;17.30;99.90;;;;;;5053619;28;20024;-62
2022/11/28 11:49:35;;;;;;;13.02;2.95;;;17.40;99.90;;;;;;5053441;28;20037;-61
2022/11/28 11:52:14;;;;;;;15.65;3.42;;;17.20;99.90;;;;;;5053442;28;20460;-64
2022/11/28 11:55:15;;;;;;;15.73;3.60;;;17.90;99.90;;;;;;5053778;28;20089;-64
2022/11/28 11:57:49;;;;;;;12.40;3.10;;;18.30;99.90;;;;;;5053735;28;20052;-62
2022/11/28 12:00:27;;;;;;;16.27;4.57;;;17.90;99.90;;;;;;5053787;28;20075;-64
2022/11/28 12:02:59;;;;;;;15.40;3.38;;;17.90;99.90;;;;;;5054913;28;20040;-64
2022/11/28 12:05:33;;;;;;;20.40;7.43;;;17.80;99.90;;;;;;5053274;28;20108;-62
2022/11/28 12:08:00;;;;;;;18.65;5.43;;;17.30;99.90;;;;;;5053082;28;20055;-62
2022/11/28 12:10:33;;;;;;;17.58;3.47;;;17.00;99.90;;;;;;5052923;28;20044;-62
2022/11/28 12:13:01;;;;;;;17.42;4.47;;;17.20;99.90;;;;;;5052583;28;20607;-64
2022/11/28 12:15:38;;;;;;;17.15;3.42;;;17.40;99.90;;;;;;5052353;28;20036;-64
2022/11/28 12:18:12;;;;;;;14.68;4.13;;;17.10;99.90;;;;;;5052808;28;20025;-64
2022/11/28 12:21:09;;;;;;;19.02;5.82;;;17.10;99.90;;;;;;5053185;28;20087;-63
2022/11/28 12:23:50;;;;;;;19.20;7.80;;;17.00;99.90;;;;;;5052834;28;20047;-64
2022/11/28 12:26:44;;;;;;;16.95;4.50;;;16.00;99.90;;;;;;5052494;28;20028;-62
2022/11/28 12:29:22;;;;;;;16.08;2.92;;;15.90;99.90;;;;;;5052598;28;20374;-61
2022/11/28 12:32:13;;;;;;;11.43;3.60;;;15.50;99.90;;;;;;5052500;28;20166;-62
2022/11/28 12:34:45;;;;;;;15.73;5.63;;;15.30;99.90;;;;;;5052644;28;20017;-62
2022/11/28 12:37:48;;;;;;;13.82;4.88;;;15.10;99.90;;;;;;5052448;28;20405;-62
2022/11/28 12:40:13;;;;;;;18.08;6.38;;;15.00;99.90;;;;;;5051951;28;20155;-62
2022/11/28 12:43:20;;;;;;;17.58;5.63;;;15.10;99.90;;;;;;5052431;28;20028;-62
2022/11/28 12:46:21;;;;;;;12.00;3.38;;;15.50;99.90;;;;;;5052689;28;20059;-62
2022/11/28 12:48:57;;;;;;;22.25;6.07;;;15.70;99.90;;;;;;5050437;28;20044;-62
2022/11/28 12:51:47;;;;;;;14.25;4.32;;;15.90;99.90;;;;;;5052160;28;20472;-62
2022/11/28 12:54:18;;;;;;;14.77;4.03;;;15.90;99.90;;;;;;5052190;28;20037;-62
2022/11/28 12:56:55;;;;;;;16.55;4.57;;;15.40;99.90;;;;;;5051770;28;20028;-62
2022/11/28 12:59:33;;;;;;;14.07;4.13;;;15.30;99.90;;;;;;5053369;28;20032;-62
2022/11/28 13:02:17;;;;;;;11.57;2.83;;;15.10;99.90;;;;;;5051246;28;20070;-64
2022/11/28 13:05:04;;;;;;;13.30;2.88;;;15.30;99.90;;;;;;5052075;28;20018;-64
2022/11/28 13:07:45;;;;;;;8.70;2.78;;;15.20;99.90;;;;;;5051771;28;20037;-62